Time;durP1;ratioP1;P1;durP2;ratioP2;P2;SDS_P1;SDS_P2;PMS_P1;PMS_P2;Temp;Humidity;BMP_temperature;BMP_pressure;BME280_temperature;BME280_humidity;BME280_pressure;Samples;Min_cycle;Max_cycle;Signal;HPM_P1;HPM_P2
2023/12/30 00:02:12;;;;;;;0.30;0.30;;;;;;;9.90;83.17;99621.72;4917693;29;20032;-70
2023/12/30 00:04:37;;;;;;;0.20;0.20;;;;;;;9.82;83.52;99635.47;4922305;29;20067;-69
2023/12/30 00:07:03;;;;;;;2.42;0.30;;;;;;;9.75;83.89;99636.22;4928385;29;20027;-70
2023/12/30 00:09:28;;;;;;;0.80;0.50;;;;;;;9.83;84.07;99620.91;4915323;29;20040;-70
2023/12/30 00:11:54;;;;;;;0.20;0.20;;;;;;;9.81;84.50;99625.88;4914621;29;20024;-70
2023/12/30 00:14:21;;;;;;;1.15;0.30;;;;;;;9.69;84.44;99632.34;4930002;29;20050;-70
2023/12/30 00:16:46;;;;;;;0.95;0.45;;;;;;;9.68;84.96;99619.25;4907210;29;20040;-70
2023/12/30 00:19:12;;;;;;;0.45;0.45;;;;;;;9.68;84.86;99620.03;4911670;29;20044;-70
2023/12/30 00:21:38;;;;;;;0.55;0.30;;;;;;;9.69;84.75;99628.88;4913630;29;21241;-69
2023/12/30 00:24:04;;;;;;;0.30;0.30;;;;;;;9.64;85.31;99629.97;4913412;29;20051;-70
2023/12/30 00:26:29;;;;;;;0.30;0.30;;;;;;;9.53;85.91;99626.44;4915544;29;20032;-70
2023/12/30 00:29:08;;;;;;;0.43;0.43;;;;;;;9.52;85.84;99624.91;4913421;29;21106;-70
2023/12/30 00:31:34;;;;;;;0.22;0.22;;;;;;;9.57;85.39;99626.47;4916203;29;20639;-70
2023/12/30 00:34:01;;;;;;;0.90;0.52;;;;;;;9.34;87.15;99629.38;4916951;29;20039;-70
2023/12/30 00:36:27;;;;;;;0.65;0.40;;;;;;;9.37;86.91;99635.94;4912891;29;20059;-70
2023/12/30 00:38:54;;;;;;;0.25;0.25;;;;;;;9.50;86.51;99618.38;4914631;29;20063;-70
2023/12/30 00:41:24;;;;;;;0.30;0.30;;;;;;;9.42;86.45;99622.13;4915088;29;20488;-70
2023/12/30 00:43:50;;;;;;;0.20;0.20;;;;;;;9.49;86.92;99616.81;4915472;29;20047;-70
2023/12/30 00:46:17;;;;;;;0.98;0.57;;;;;;;9.58;86.16;99606.53;4913432;29;20660;-70
2023/12/30 00:48:42;;;;;;;0.32;0.32;;;;;;;9.51;86.50;99603.78;4896278;29;20047;-70
2023/12/30 00:51:08;;;;;;;0.68;0.38;;;;;;;9.52;86.51;99610.72;4898263;29;20090;-70
2023/12/30 00:53:33;;;;;;;2.78;0.75;;;;;;;9.49;87.17;99612.22;4914694;29;20048;-70
2023/12/30 00:55:59;;;;;;;1.65;0.32;;;;;;;9.53;87.45;99612.22;4913138;29;20047;-69
2023/12/30 00:58:24;;;;;;;0.55;0.43;;;;;;;9.43;88.18;99623.66;4913491;29;20142;-70
2023/12/30 01:00:51;;;;;;;0.40;0.40;;;;;;;9.54;87.51;99621.84;4914464;29;20036;-70
2023/12/30 01:03:16;;;;;;;0.35;0.35;;;;;;;9.48;87.93;99628.72;4914822;29;20504;-70
2023/12/30 01:05:43;;;;;;;0.55;0.55;;;;;;;9.51;87.59;99622.59;4938825;28;20055;-70
2023/12/30 01:08:12;;;;;;;5.10;0.65;;;;;;;9.52;88.29;99626.84;4915645;29;20047;-69
2023/12/30 01:10:38;;;;;;;1.05;1.05;;;;;;;9.41;88.64;99617.91;4915608;29;20039;-70
2023/12/30 01:13:07;;;;;;;8.98;1.10;;;;;;;9.42;88.47;99611.41;4914062;29;20162;-69
2023/12/30 01:15:34;;;;;;;0.93;0.70;;;;;;;9.45;88.28;99610.63;4916853;29;20475;-70
2023/12/30 01:18:01;;;;;;;1.20;0.50;;;;;;;9.45;88.41;99613.31;4913203;29;20166;-70
2023/12/30 01:20:26;;;;;;;0.60;0.50;;;;;;;9.46;89.03;99612.19;4918365;29;20040;-69
2023/12/30 01:22:51;;;;;;;0.68;0.68;;;;;;;9.36;89.31;99610.97;4919383;29;20115;-69
2023/12/30 01:25:20;;;;;;;4.10;0.65;;;;;;;9.50;88.21;99623.75;4918942;29;22227;-69
2023/12/30 01:27:45;;;;;;;9.13;0.63;;;;;;;9.41;87.88;99625.97;4918108;29;20123;-70
2023/12/30 01:30:11;;;;;;;0.60;0.60;;;;;;;9.28;88.69;99616.66;4919053;29;20043;-70
2023/12/30 01:32:36;;;;;;;0.20;0.20;;;;;;;9.41;88.12;99616.00;4919755;29;20039;-70
2023/12/30 01:35:03;;;;;;;0.35;0.35;;;;;;;9.43;87.37;99623.66;4919665;29;20055;-70
2023/12/30 01:37:29;;;;;;;0.30;0.30;;;;;;;9.48;86.69;99623.34;4934415;29;20526;-70
2023/12/30 01:39:55;;;;;;;1.90;0.47;;;;;;;9.48;86.48;99632.19;4913612;29;20047;-70
2023/12/30 01:42:21;;;;;;;2.38;0.55;;;;;;;9.37;86.32;99644.00;4919069;29;20151;-70
2023/12/30 01:44:46;;;;;;;0.30;0.30;;;;;;;9.23;87.62;99641.94;4894441;29;20047;-70
2023/12/30 01:47:12;;;;;;;0.30;0.30;;;;;;;8.93;90.03;99646.63;4918497;29;20178;-70
2023/12/30 01:49:37;;;;;;;0.50;0.50;;;;;;;9.11;89.08;99639.53;4918237;29;20036;-70
2023/12/30 01:52:04;;;;;;;0.38;0.38;;;;;;;9.29;87.66;99653.13;4925217;29;20043;-70
2023/12/30 01:54:30;;;;;;;7.22;0.65;;;;;;;9.19;88.12;99662.63;4925002;29;20047;-70
2023/12/30 01:56:57;;;;;;;0.40;0.40;;;;;;;9.20;86.96;99655.31;4924344;29;20039;-70
2023/12/30 01:59:22;;;;;;;0.20;0.20;;;;;;;9.17;87.88;99664.13;4923824;29;20031;-70
2023/12/30 02:01:48;;;;;;;0.10;0.10;;;;;;;9.36;86.51;99667.38;4923960;29;20035;-70
2023/12/30 02:04:13;;;;;;;0.40;0.40;;;;;;;9.09;86.86;99664.06;4926731;29;20511;-70
2023/12/30 02:06:39;;;;;;;0.30;0.30;;;;;;;9.24;86.20;99659.59;4908102;29;20036;-70
2023/12/30 02:09:06;;;;;;;0.13;0.13;;;;;;;9.28;85.04;99673.06;4920843;29;20035;-70
2023/12/30 02:11:32;;;;;;;1.10;0.82;;;;;;;8.99;85.86;99678.16;4928529;29;20532;-70
2023/12/30 02:13:57;;;;;;;0.20;0.20;;;;;;;9.07;85.23;99676.31;4931292;29;20118;-70
2023/12/30 02:16:23;;;;;;;0.15;0.15;;;;;;;9.27;84.54;99669.59;4931243;29;20126;-70
2023/12/30 02:18:48;;;;;;;0.20;0.20;;;;;;;9.16;83.89;99668.72;4926822;29;20067;-71
2023/12/30 02:21:14;;;;;;;0.30;0.30;;;;;;;8.77;85.62;99675.59;4928086;29;20039;-70
2023/12/30 02:23:39;;;;;;;0.50;0.50;;;;;;;8.96;85.33;99681.56;4926573;29;20042;-70
2023/12/30 02:26:07;;;;;;;0.30;0.30;;;;;;;9.01;85.96;99685.84;4921908;29;20126;-69
2023/12/30 02:28:33;;;;;;;0.30;0.30;;;;;;;8.92;85.47;99704.16;4922290;29;20546;-69
2023/12/30 02:30:58;;;;;;;0.55;0.22;;;;;;;9.04;84.10;99693.16;4927864;29;20035;-70
2023/12/30 02:33:24;;;;;;;0.35;0.20;;;;;;;9.16;83.45;99695.59;4943845;29;20066;-69
2023/12/30 02:35:50;;;;;;;0.52;0.38;;;;;;;9.22;82.73;99696.78;4920044;29;20106;-70
2023/12/30 02:38:16;;;;;;;0.20;0.20;;;;;;;9.01;83.98;99710.78;4913547;29;20097;-71
2023/12/30 02:40:42;;;;;;;0.38;0.20;;;;;;;9.35;82.45;99691.94;4909581;29;20051;-70
2023/12/30 02:43:07;;;;;;;0.15;0.15;;;;;;;9.30;83.26;99700.31;4930006;29;20036;-70
2023/12/30 02:45:33;;;;;;;0.20;0.20;;;;;;;9.43;82.04;99709.66;4926344;29;20047;-70
2023/12/30 02:47:58;;;;;;;1.65;0.57;;;;;;;9.17;83.21;99697.16;4921209;29;20491;-70
2023/12/30 02:50:23;;;;;;;0.20;0.20;;;;;;;8.90;84.09;99717.19;4929689;29;20035;-70
2023/12/30 02:52:50;;;;;;;0.35;0.35;;;;;;;9.12;83.69;99702.06;4931831;28;20024;-70
2023/12/30 02:55:16;;;;;;;0.20;0.20;;;;;;;9.10;83.60;99718.53;4924696;29;22026;-70
2023/12/30 02:57:41;;;;;;;0.55;0.35;;;;;;;9.00;83.29;99703.84;4918187;29;20040;-70
2023/12/30 03:00:07;;;;;;;0.63;0.25;;;;;;;8.66;85.18;99704.22;4893349;29;20474;-70
2023/12/30 03:02:33;;;;;;;0.10;0.10;;;;;;;8.93;84.28;99711.84;4893901;29;20035;-70
2023/12/30 03:04:58;;;;;;;0.20;0.20;;;;;;;8.73;84.86;99698.97;4917606;29;20495;-70
2023/12/30 03:07:24;;;;;;;0.13;0.13;;;;;;;8.80;85.13;99707.09;4916418;29;20071;-70
2023/12/30 03:09:55;;;;;;;0.45;0.30;;;;;;;8.79;85.30;99708.22;4920005;29;20913;-70
2023/12/30 03:12:21;;;;;;;0.20;0.20;;;;;;;8.98;84.52;99719.56;4911022;29;20063;-70
2023/12/30 03:14:49;;;;;;;0.22;0.22;;;;;;;8.91;84.54;99711.44;4917577;29;20118;-70
2023/12/30 03:17:15;;;;;;;0.30;0.30;;;;;;;8.74;85.48;99712.00;4916315;29;20050;-70
2023/12/30 03:19:41;;;;;;;0.38;0.30;;;;;;;8.65;85.42;99710.75;4925646;29;20420;-70
2023/12/30 03:22:06;;;;;;;0.70;0.30;;;;;;;8.68;85.89;99720.72;4922828;29;20095;-70
2023/12/30 03:24:32;;;;;;;0.32;0.28;;;;;;;8.96;84.35;99724.53;4953373;28;20031;-70
2023/12/30 03:26:57;;;;;;;0.30;0.30;;;;;;;8.80;85.00;99734.72;4926181;29;20036;-70
2023/12/30 03:29:23;;;;;;;0.20;0.20;;;;;;;8.71;85.91;99730.75;4926324;29;20126;-70
2023/12/30 03:31:49;;;;;;;0.57;0.28;;;;;;;8.48;86.63;99725.47;4927371;29;21483;-70
2023/12/30 03:34:14;;;;;;;1.05;0.95;;;;;;;8.71;86.09;99738.81;4907610;29;20040;-70
2023/12/30 03:36:40;;;;;;;5.25;0.77;;;;;;;8.72;86.22;99741.13;4954001;28;20133;-70
2023/12/30 03:39:05;;;;;;;0.40;0.40;;;;;;;8.72;86.02;99741.13;4924927;29;20178;-70
2023/12/30 03:41:31;;;;;;;0.35;0.35;;;;;;;8.69;86.08;99751.81;4927896;29;20035;-70
2023/12/30 03:43:56;;;;;;;0.90;0.28;;;;;;;8.95;85.33;99749.84;4929662;29;20115;-70
2023/12/30 03:46:23;;;;;;;0.40;0.30;;;;;;;8.87;85.68;99760.84;4927933;29;20054;-70
2023/12/30 03:48:48;;;;;;;0.40;0.40;;;;;;;8.98;85.38;99759.84;4938942;29;20040;-70
2023/12/30 03:51:13;;;;;;;0.20;0.20;;;;;;;8.86;85.37;99768.16;4927121;29;20035;-70
2023/12/30 03:53:39;;;;;;;0.20;0.20;;;;;;;9.00;85.40;99775.59;4926699;29;20522;-70
2023/12/30 03:56:05;;;;;;;0.50;0.50;;;;;;;8.85;85.87;99774.63;4923615;29;20528;-70
2023/12/30 03:58:30;;;;;;;0.43;0.38;;;;;;;8.82;85.54;99777.28;4909078;29;20130;-70
2023/12/30 04:00:55;;;;;;;0.25;0.25;;;;;;;8.69;86.52;99773.28;4928685;29;20035;-70
2023/12/30 04:03:21;;;;;;;0.30;0.30;;;;;;;8.86;86.33;99776.19;4925857;29;20036;-70
2023/12/30 04:05:46;;;;;;;0.98;0.28;;;;;;;8.80;86.53;99769.59;4924676;29;20027;-70
2023/12/30 04:08:12;;;;;;;0.15;0.15;;;;;;;8.92;85.99;99761.28;4929185;29;20035;-70
2023/12/30 04:10:37;;;;;;;2.35;0.90;;;;;;;8.82;86.67;99778.06;4923716;29;20028;-71
2023/12/30 04:13:03;;;;;;;0.57;0.30;;;;;;;8.97;85.87;99785.16;4930916;29;20038;-70
2023/12/30 04:15:28;;;;;;;0.40;0.40;;;;;;;9.05;85.33;99778.72;4927829;29;20455;-70
2023/12/30 04:17:54;;;;;;;0.40;0.40;;;;;;;9.14;85.37;99786.50;4925963;29;20027;-70
2023/12/30 04:20:19;;;;;;;0.57;0.57;;;;;;;9.07;85.65;99767.63;4924171;29;20035;-70
2023/12/30 04:22:45;;;;;;;0.30;0.30;;;;;;;8.98;86.55;99792.06;4925149;29;20035;-70
2023/12/30 04:25:10;;;;;;;0.77;0.57;;;;;;;9.16;86.47;99800.34;4909963;29;20549;-70
2023/12/30 04:27:36;;;;;;;2.15;0.63;;;;;;;9.12;88.01;99794.13;4940118;28;20043;-69
2023/12/30 04:30:02;;;;;;;0.40;0.40;;;;;;;9.07;89.51;99803.31;4915803;29;20037;-70
2023/12/30 04:32:27;;;;;;;0.28;0.28;;;;;;;8.59;92.50;99814.16;4912763;29;20051;-70
2023/12/30 04:34:53;;;;;;;1.23;0.68;;;;;;;8.64;92.61;99801.19;4907750;29;20038;-70
2023/12/30 04:37:19;;;;;;;0.93;0.57;;;;;;;8.59;92.72;99796.16;4915686;29;20139;-69
2023/12/30 04:39:45;;;;;;;2.85;0.82;;;;;;;8.80;92.78;99780.34;4916451;29;20080;-69
2023/12/30 04:42:12;;;;;;;2.60;0.40;;;;;;;8.70;93.16;99791.69;4915620;29;20523;-69
2023/12/30 04:44:38;;;;;;;2.80;0.77;;;;;;;8.63;94.22;99782.78;4915316;29;20027;-70
2023/12/30 04:47:04;;;;;;;2.17;0.68;;;;;;;8.90;92.98;99778.94;4917316;29;20086;-71
2023/12/30 04:49:29;;;;;;;0.20;0.20;;;;;;;8.83;93.43;99778.81;4915495;29;20058;-69
2023/12/30 04:51:55;;;;;;;0.28;0.28;;;;;;;9.06;92.98;99780.28;4911264;29;20110;-71
2023/12/30 04:54:22;;;;;;;1.05;0.35;;;;;;;9.09;92.79;99786.84;4918774;29;20061;-71
2023/12/30 04:56:47;;;;;;;2.22;0.43;;;;;;;9.10;92.19;99791.81;4931073;29;20177;-70
2023/12/30 04:59:13;;;;;;;0.28;0.28;;;;;;;8.76;93.99;99790.25;4926487;29;20039;-70
2023/12/30 05:01:38;;;;;;;1.17;0.25;;;;;;;9.02;93.40;99792.09;4924150;28;20039;-70
2023/12/30 05:04:04;;;;;;;0.73;0.43;;;;;;;8.92;93.31;99788.13;4898343;29;20067;-70
2023/12/30 05:06:30;;;;;;;0.47;0.47;;;;;;;8.94;93.29;99788.56;4915719;29;20039;-70
2023/12/30 05:08:58;;;;;;;0.30;0.30;;;;;;;8.86;93.80;99781.56;4895694;29;20040;-70
2023/12/30 05:11:24;;;;;;;0.20;0.20;;;;;;;9.14;92.81;99794.56;4917521;29;20111;-69
2023/12/30 05:13:49;;;;;;;0.75;0.47;;;;;;;9.12;91.95;99796.06;4918968;29;20458;-69
2023/12/30 05:16:15;;;;;;;0.30;0.30;;;;;;;9.05;92.58;99805.59;4917887;29;20627;-69
2023/12/30 05:18:40;;;;;;;0.47;0.47;;;;;;;9.03;91.92;99810.56;4917683;29;20035;-69
2023/12/30 05:21:14;;;;;;;0.43;0.35;;;;;;;8.84;93.66;99823.34;4916236;29;20038;-70
2023/12/30 05:23:40;;;;;;;0.35;0.25;;;;;;;8.86;92.26;99815.69;4909653;29;20032;-69
2023/12/30 05:26:06;;;;;;;1.30;0.30;;;;;;;8.95;92.50;99808.91;4916451;29;20044;-69
2023/12/30 05:28:31;;;;;;;0.65;0.65;;;;;;;8.96;92.30;99812.38;4915619;29;20047;-69
2023/12/30 05:30:57;;;;;;;0.40;0.40;;;;;;;9.02;91.70;99825.09;4917329;29;20035;-69
2023/12/30 05:33:23;;;;;;;1.33;0.65;;;;;;;8.99;91.97;99833.13;4921724;29;20538;-69
2023/12/30 05:35:49;;;;;;;5.28;0.43;;;;;;;8.80;93.43;99825.19;4924893;29;20060;-70
2023/12/30 05:38:15;;;;;;;0.82;0.50;;;;;;;8.98;92.80;99836.94;4925304;29;20066;-70
2023/12/30 05:40:40;;;;;;;1.58;0.55;;;;;;;8.85;92.42;99841.75;4953065;28;20056;-69
2023/12/30 05:43:06;;;;;;;0.28;0.22;;;;;;;9.10;91.32;99840.16;4927346;29;20059;-70
2023/12/30 05:45:32;;;;;;;1.38;0.45;;;;;;;9.12;90.96;99839.78;4926109;29;20118;-70
2023/12/30 05:47:57;;;;;;;0.30;0.30;;;;;;;8.94;91.54;99852.25;4922330;29;20042;-71
2023/12/30 05:50:23;;;;;;;0.20;0.20;;;;;;;9.02;91.46;99841.22;4926928;29;20402;-70
2023/12/30 05:52:48;;;;;;;0.20;0.20;;;;;;;9.01;90.67;99844.28;4926568;29;20391;-69
2023/12/30 05:55:14;;;;;;;0.55;0.30;;;;;;;8.92;90.62;99849.16;4925365;29;20342;-69
2023/12/30 05:57:39;;;;;;;0.30;0.30;;;;;;;8.97;90.93;99854.97;4950426;28;20491;-70
2023/12/30 06:00:07;;;;;;;0.68;0.40;;;;;;;8.85;90.33;99857.84;4927302;29;20058;-70
2023/12/30 06:02:37;;;;;;;0.82;0.77;;;;;;;9.05;89.96;99855.84;4928296;29;20047;-70
2023/12/30 06:05:03;;;;;;;0.20;0.20;;;;;;;9.18;88.69;99862.50;4929265;29;20583;-70
2023/12/30 06:07:29;;;;;;;0.63;0.40;;;;;;;9.09;89.54;99860.13;4959695;28;20027;-70
2023/12/30 06:09:54;;;;;;;0.20;0.20;;;;;;;9.17;89.24;99858.28;4930709;29;20039;-70
2023/12/30 06:12:19;;;;;;;0.60;0.57;;;;;;;9.14;89.29;99875.13;4928357;29;20042;-70
2023/12/30 06:14:45;;;;;;;1.48;0.30;;;;;;;9.13;88.88;99878.97;4930471;29;20032;-70
2023/12/30 06:17:10;;;;;;;4.95;0.57;;;;;;;9.01;90.28;99871.13;4930210;29;20047;-69
2023/12/30 06:19:36;;;;;;;0.40;0.40;;;;;;;9.03;89.10;99883.06;4930932;29;20495;-70
2023/12/30 06:22:01;;;;;;;2.53;0.38;;;;;;;9.24;88.29;99884.47;4928893;29;20051;-70
2023/12/30 06:24:26;;;;;;;0.47;0.47;;;;;;;9.04;88.85;99894.56;4931048;28;20070;-69
2023/12/30 06:26:52;;;;;;;0.25;0.25;;;;;;;9.09;88.37;99881.59;4923169;28;20040;-70
2023/12/30 06:29:19;;;;;;;0.30;0.30;;;;;;;9.13;88.46;99886.25;4926032;29;20039;-69
2023/12/30 06:31:44;;;;;;;5.50;0.90;;;;;;;9.14;89.19;99887.81;4923570;29;20024;-70
2023/12/30 06:34:10;;;;;;;0.25;0.25;;;;;;;8.90;90.10;99895.13;4924238;29;20094;-70
2023/12/30 06:36:36;;;;;;;1.17;0.40;;;;;;;9.01;90.20;99911.41;4926376;29;20185;-70
2023/12/30 06:39:02;;;;;;;1.20;0.73;;;;;;;9.20;88.79;99902.44;4927112;29;20069;-70
2023/12/30 06:41:29;;;;;;;4.95;0.57;;;;;;;9.12;88.29;99906.19;4927406;29;20047;-70
2023/12/30 06:43:54;;;;;;;0.47;0.47;;;;;;;9.10;89.55;99907.31;4929108;29;20118;-70
2023/12/30 06:46:20;;;;;;;0.35;0.35;;;;;;;9.28;88.21;99920.19;4928769;29;20122;-70
2023/12/30 06:48:49;;;;;;;0.52;0.40;;;;;;;9.48;86.47;99925.09;4941102;29;20205;-70
2023/12/30 06:51:15;;;;;;;0.30;0.30;;;;;;;9.34;87.01;99924.13;4927344;29;20043;-70
2023/12/30 06:53:40;;;;;;;0.30;0.30;;;;;;;9.20;88.44;99922.03;4928931;29;20070;-70
2023/12/30 06:56:09;;;;;;;0.20;0.20;;;;;;;9.29;87.59;99927.88;4907980;29;20103;-69
2023/12/30 06:58:35;;;;;;;1.05;0.60;;;;;;;9.20;88.51;99921.25;4926770;29;20039;-70
2023/12/30 07:01:01;;;;;;;0.20;0.20;;;;;;;9.36;87.63;99932.59;4924721;29;20711;-69
2023/12/30 07:03:26;;;;;;;0.45;0.45;;;;;;;9.21;87.06;99939.69;4924062;29;20122;-70
2023/12/30 07:05:52;;;;;;;0.25;0.25;;;;;;;9.43;87.42;99943.44;4927737;29;20059;-70
2023/12/30 07:08:19;;;;;;;6.32;0.45;;;;;;;9.36;88.77;99954.09;4927413;29;20036;-70
2023/12/30 07:10:44;;;;;;;0.30;0.30;;;;;;;9.04;91.17;99948.25;4953592;28;20082;-69
2023/12/30 07:13:11;;;;;;;0.40;0.40;;;;;;;8.99;92.95;99956.63;4937465;28;20027;-70
2023/12/30 07:15:36;;;;;;;0.47;0.47;;;;;;;8.86;92.72;99964.13;4927393;29;20024;-70
2023/12/30 07:18:02;;;;;;;0.75;0.75;;;;;;;9.13;92.77;99964.91;4925692;29;20040;-70
2023/12/30 07:20:27;;;;;;;1.95;0.73;;;;;;;8.87;94.43;99971.03;4925033;29;20044;-69
2023/12/30 07:22:53;;;;;;;0.40;0.40;;;;;;;9.00;94.24;99972.38;4916644;29;20533;-69
2023/12/30 07:25:19;;;;;;;2.58;0.57;;;;;;;9.12;93.47;99981.38;4926466;29;20506;-70
2023/12/30 07:27:45;;;;;;;0.30;0.30;;;;;;;9.16;92.50;99987.56;4917996;29;20032;-70
2023/12/30 07:30:11;;;;;;;0.55;0.40;;;;;;;9.00;93.55;99968.94;4927469;29;20047;-70
2023/12/30 07:32:37;;;;;;;8.25;0.47;;;;;;;8.96;93.60;99976.91;4923668;29;20036;-70
2023/12/30 07:35:05;;;;;;;1.55;0.40;;;;;;;8.96;91.98;99976.91;4924528;29;20031;-70
2023/12/30 07:37:32;;;;;;;0.40;0.40;;;;;;;8.96;92.21;100003.00;4925401;29;20073;-70
2023/12/30 07:39:57;;;;;;;0.40;0.40;;;;;;;8.81;90.95;99982.41;4926744;29;20044;-70
2023/12/30 07:42:23;;;;;;;0.45;0.45;;;;;;;8.76;91.92;99991.56;4909457;29;20039;-69
2023/12/30 07:44:48;;;;;;;0.30;0.30;;;;;;;8.74;91.60;99990.38;4926652;29;20090;-70
2023/12/30 07:47:14;;;;;;;0.65;0.35;;;;;;;9.00;90.80;100003.84;4923113;29;20155;-70
2023/12/30 07:49:39;;;;;;;1.15;0.38;;;;;;;9.05;90.79;100004.31;4926101;29;20039;-70
2023/12/30 07:52:05;;;;;;;0.55;0.55;;;;;;;8.91;91.86;100011.34;4923146;29;20139;-70
2023/12/30 07:54:30;;;;;;;3.40;0.57;;;;;;;8.72;91.67;100003.38;4925602;29;20051;-70
2023/12/30 07:56:56;;;;;;;3.28;0.45;;;;;;;9.00;91.61;100012.66;4927132;29;20028;-70
2023/12/30 07:59:21;;;;;;;1.30;0.65;;;;;;;9.15;90.33;100015.56;4924309;29;20036;-70
2023/12/30 08:01:46;;;;;;;0.28;0.22;;;;;;;8.76;90.82;100015.72;4922698;29;20601;-70
2023/12/30 08:04:13;;;;;;;0.30;0.30;;;;;;;8.81;91.10;100010.03;4924630;29;20051;-70
2023/12/30 08:06:40;;;;;;;0.82;0.35;;;;;;;8.86;88.81;100019.72;4923241;29;20047;-69
2023/12/30 08:09:06;;;;;;;0.30;0.30;;;;;;;8.98;89.48;100027.59;4925726;29;20035;-70
2023/12/30 08:11:35;;;;;;;0.30;0.30;;;;;;;9.11;87.95;100018.22;4946754;29;20032;-70
2023/12/30 08:14:00;;;;;;;1.20;0.50;;;;;;;9.18;86.67;100025.59;4932248;29;20036;-70
2023/12/30 08:16:26;;;;;;;0.38;0.38;;;;;;;9.03;86.28;100033.44;4933591;29;20035;-70
2023/12/30 08:18:51;;;;;;;1.48;0.73;;;;;;;8.73;88.59;100029.84;4928394;29;20039;-70
2023/12/30 08:21:17;;;;;;;0.20;0.20;;;;;;;9.06;87.77;100026.56;4927159;29;20044;-70
2023/12/30 08:23:42;;;;;;;4.78;0.50;;;;;;;9.09;86.94;100028.53;4928146;29;20513;-70
2023/12/30 08:26:07;;;;;;;0.20;0.20;;;;;;;8.94;87.66;100026.75;4917915;29;20414;-70
2023/12/30 08:28:33;;;;;;;0.28;0.28;;;;;;;9.17;86.56;100032.09;4917249;29;21320;-70
2023/12/30 08:30:59;;;;;;;0.43;0.30;;;;;;;9.15;85.59;100037.06;4916153;29;20027;-70
2023/12/30 08:33:25;;;;;;;1.60;1.50;;;;;;;9.27;85.46;100039.56;4915947;29;20090;-70
2023/12/30 08:35:51;;;;;;;0.20;0.20;;;;;;;9.15;85.50;100035.16;4916346;29;20035;-69
2023/12/30 08:38:16;;;;;;;1.27;0.50;;;;;;;9.01;86.66;100041.06;4915637;29;20522;-70
2023/12/30 08:40:43;;;;;;;3.03;0.60;;;;;;;9.28;85.48;100039.19;4932552;29;20039;-69
2023/12/30 08:43:08;;;;;;;1.38;0.45;;;;;;;9.22;85.83;100046.00;4916937;29;20126;-69
2023/12/30 08:45:34;;;;;;;0.90;0.57;;;;;;;9.29;85.47;100046.09;4911217;29;20039;-70
2023/12/30 08:48:00;;;;;;;0.93;0.60;;;;;;;9.49;83.88;100046.78;4917875;29;20082;-70
2023/12/30 08:50:26;;;;;;;2.65;0.85;;;;;;;9.37;84.52;100047.75;4916562;29;20044;-70
2023/12/30 08:52:54;;;;;;;0.60;0.40;;;;;;;9.33;85.03;100073.03;4917479;29;21776;-70
2023/12/30 08:55:19;;;;;;;2.50;0.55;;;;;;;9.41;84.70;100066.63;4918569;29;20059;-70
2023/12/30 08:57:45;;;;;;;1.70;0.47;;;;;;;9.37;85.77;100071.94;4923948;29;20039;-70
2023/12/30 09:00:11;;;;;;;1.02;0.45;;;;;;;9.54;84.33;100071.44;4928315;29;20031;-70
2023/12/30 09:02:37;;;;;;;0.60;0.50;;;;;;;9.48;84.98;100075.59;4924702;29;20024;-70
2023/12/30 09:05:03;;;;;;;0.32;0.32;;;;;;;9.58;83.79;100074.19;4925484;29;20035;-70
2023/12/30 09:07:29;;;;;;;0.50;0.50;;;;;;;9.56;84.77;100103.34;4925911;29;21329;-70
2023/12/30 09:09:56;;;;;;;4.05;0.50;;;;;;;9.67;83.78;100093.53;4927235;29;20126;-70
2023/12/30 09:12:21;;;;;;;3.50;0.93;;;;;;;9.30;85.34;100093.34;4925410;29;20083;-70
2023/12/30 09:14:47;;;;;;;3.55;0.57;;;;;;;9.50;84.64;100102.09;4928755;29;20040;-70
2023/12/30 09:17:12;;;;;;;1.33;1.00;;;;;;;9.61;83.91;100103.03;4922613;29;20031;-70
2023/12/30 09:19:38;;;;;;;0.93;0.50;;;;;;;9.69;83.61;100107.38;4921977;29;20036;-70
2023/12/30 09:22:07;;;;;;;0.35;0.35;;;;;;;9.51;84.34;100114.38;4925775;29;20036;-70
2023/12/30 09:24:34;;;;;;;2.17;0.80;;;;;;;9.70;83.55;100122.34;4922256;29;20040;-70
2023/12/30 09:26:59;;;;;;;0.38;0.38;;;;;;;9.60;83.59;100129.13;4924042;29;20103;-70
2023/12/30 09:29:25;;;;;;;0.25;0.25;;;;;;;9.68;83.23;100121.94;4925741;29;20467;-70
2023/12/30 09:31:50;;;;;;;0.85;0.38;;;;;;;9.78;82.97;100129.41;4924525;29;20115;-70
2023/12/30 09:34:16;;;;;;;0.55;0.55;;;;;;;9.66;82.98;100133.06;4924649;28;20054;-70
2023/12/30 09:36:41;;;;;;;1.75;1.10;;;;;;;9.68;83.68;100132.69;4924164;29;20039;-70
2023/12/30 09:39:10;;;;;;;0.20;0.20;;;;;;;9.76;82.97;100140.53;4920975;29;20043;-69
2023/12/30 09:41:39;;;;;;;0.28;0.28;;;;;;;9.63;83.42;100141.88;4935143;29;20039;-70
2023/12/30 09:44:06;;;;;;;0.82;0.65;;;;;;;9.75;83.31;100143.56;4919811;29;20066;-70
2023/12/30 09:46:32;;;;;;;4.47;0.82;;;;;;;9.74;83.51;100142.78;4922505;29;20034;-70
2023/12/30 09:48:58;;;;;;;0.40;0.40;;;;;;;9.71;83.30;100154.28;4922612;29;20031;-69
2023/12/30 09:51:27;;;;;;;1.65;1.17;;;;;;;9.83;82.79;100158.69;4921470;29;20047;-69
2023/12/30 09:53:55;;;;;;;1.42;0.50;;;;;;;9.59;83.92;100161.75;4921061;29;20047;-70
2023/12/30 09:56:22;;;;;;;0.52;0.40;;;;;;;9.72;83.99;100165.78;4920780;29;20047;-69
2023/12/30 09:58:48;;;;;;;0.40;0.40;;;;;;;9.72;85.32;100163.88;4913841;29;20031;-69
2023/12/30 10:01:14;;;;;;;0.30;0.30;;;;;;;9.79;84.73;100174.75;4928343;29;20031;-70
2023/12/30 10:03:40;;;;;;;0.82;0.52;;;;;;;9.71;85.14;100183.06;4921037;29;20407;-70
2023/12/30 10:06:08;;;;;;;0.73;0.50;;;;;;;9.63;85.61;100184.09;4921501;29;20415;-70
2023/12/30 10:08:34;;;;;;;0.40;0.40;;;;;;;9.72;85.60;100180.03;4920126;29;20051;-70
2023/12/30 10:10:59;;;;;;;1.88;0.82;;;;;;;9.83;84.88;100180.19;4920769;29;20090;-70
2023/12/30 10:13:28;;;;;;;0.63;0.63;;;;;;;9.77;85.54;100185.09;4920542;29;20560;-70
2023/12/30 10:15:57;;;;;;;0.43;0.43;;;;;;;9.87;85.83;100181.03;4904233;29;20087;-70
2023/12/30 10:18:23;;;;;;;0.15;0.15;;;;;;;9.86;85.08;100188.31;4920957;29;20050;-69
2023/12/30 10:20:48;;;;;;;0.32;0.32;;;;;;;9.83;85.01;100180.19;4897122;29;20036;-70
2023/12/30 10:23:14;;;;;;;0.65;0.43;;;;;;;9.39;87.81;100187.16;4920275;29;20040;-70
2023/12/30 10:25:41;;;;;;;1.65;0.77;;;;;;;9.34;88.66;100190.91;4912207;29;20027;-70
2023/12/30 10:28:06;;;;;;;0.43;0.43;;;;;;;9.34;88.77;100192.81;4903799;29;20070;-70
2023/12/30 10:30:32;;;;;;;0.40;0.40;;;;;;;9.49;88.46;100181.16;4903928;29;20148;-70
2023/12/30 10:33:10;;;;;;;0.55;0.45;;;;;;;9.60;87.49;100176.75;4917333;29;20039;-70
2023/12/30 10:35:38;;;;;;;0.60;0.28;;;;;;;9.54;87.84;100178.19;4920209;29;20047;-70
2023/12/30 10:38:06;;;;;;;1.17;0.47;;;;;;;9.65;86.58;100182.59;4920911;29;20026;-70
2023/12/30 10:40:32;;;;;;;0.70;0.30;;;;;;;9.57;87.06;100190.91;4920131;29;20095;-69
2023/12/30 10:42:58;;;;;;;0.22;0.22;;;;;;;9.57;86.75;100190.91;4921354;29;20492;-70
2023/12/30 10:45:24;;;;;;;2.47;2.25;;;;;;;9.34;88.13;100192.81;4921709;29;20027;-70
2023/12/30 10:47:50;;;;;;;0.50;0.50;;;;;;;9.42;86.85;100186.44;4918274;29;20391;-70
2023/12/30 10:50:18;;;;;;;0.22;0.22;;;;;;;9.25;87.67;100186.91;4920648;29;20451;-70
2023/12/30 10:53:04;;;;;;;0.30;0.30;;;;;;;9.35;88.68;100202.44;4916043;29;20098;-70
2023/12/30 10:55:35;;;;;;;0.65;0.40;;;;;;;9.50;87.77;100194.25;4916220;29;20059;-70
2023/12/30 10:58:13;;;;;;;0.10;0.10;;;;;;;9.18;89.23;100200.19;4915797;29;20043;-69
2023/12/30 11:00:42;;;;;;;0.80;0.57;;;;;;;9.39;88.86;100201.34;4918790;29;20102;-70
2023/12/30 11:03:08;;;;;;;0.30;0.30;;;;;;;9.47;89.16;100205.72;4918295;29;20119;-70
2023/12/30 11:05:58;;;;;;;0.68;0.50;;;;;;;9.55;89.24;100204.72;4920310;29;20043;-70
2023/12/30 11:08:24;;;;;;;0.60;0.45;;;;;;;9.61;89.39;100207.88;4929061;29;20122;-70
2023/12/30 11:10:52;;;;;;;1.85;0.40;;;;;;;9.62;89.92;100212.13;4926514;29;20110;-70
2023/12/30 11:13:21;;;;;;;4.90;0.40;;;;;;;9.64;89.26;100202.53;4928701;29;20039;-69
2023/12/30 11:15:46;;;;;;;1.33;0.52;;;;;;;9.66;89.10;100202.97;4924267;29;20059;-70
2023/12/30 11:18:15;;;;;;;0.73;0.60;;;;;;;9.39;90.28;100204.03;4924067;29;20708;-70
2023/12/30 11:20:48;;;;;;;0.70;0.50;;;;;;;9.59;91.21;100204.75;4930425;29;20048;-70
2023/12/30 11:23:15;;;;;;;5.45;1.10;;;;;;;9.62;91.16;100215.56;4917436;29;20047;-70
2023/12/30 11:25:45;;;;;;;6.57;0.93;;;;;;;9.67;90.55;100212.59;4914397;29;20139;-72
2023/12/30 11:28:22;;;;;;;0.65;0.65;;;;;;;9.72;89.28;100214.97;4914010;29;20232;-71
2023/12/30 11:31:01;;;;;;;1.95;0.60;;;;;;;9.70;89.39;100213.78;4917612;29;20101;-70
2023/12/30 11:33:27;;;;;;;1.83;0.43;;;;;;;9.40;91.76;100220.94;4918167;29;20032;-70
2023/12/30 11:35:54;;;;;;;1.58;0.73;;;;;;;9.38;92.13;100223.22;4917970;29;20050;-71